createdAt,value
2024-01-15T00:01:02.112Z,13.18
2024-01-15T00:03:50.029Z,13.27
2024-01-15T00:06:17.771Z,14.27
2024-01-15T00:08:45.782Z,16.00
2024-01-15T00:11:13.382Z,13.50
2024-01-15T00:13:41.339Z,14.07
2024-01-15T00:16:08.889Z,11.20
2024-01-15T00:18:37.159Z,11.30
2024-01-15T00:21:06.114Z,11.82
2024-01-15T00:23:33.806Z,12.48
2024-01-15T00:26:02.077Z,11.38
2024-01-15T00:28:29.937Z,8.98
2024-01-15T00:30:57.539Z,10.23
2024-01-15T00:33:25.466Z,11.90
2024-01-15T00:35:53.123Z,11.35
2024-01-15T00:38:21.646Z,19.02
2024-01-15T00:40:49.199Z,19.75
2024-01-15T00:43:19.701Z,12.45
2024-01-15T00:45:47.276Z,13.85
2024-01-15T00:48:15.230Z,11.40
2024-01-15T00:50:43.847Z,12.77
2024-01-15T00:53:11.613Z,13.40
2024-01-15T00:55:39.420Z,8.43
2024-01-15T00:58:07.112Z,11.30
2024-01-15T01:00:34.621Z,12.20
2024-01-15T01:03:02.557Z,11.30
2024-01-15T01:05:30.162Z,12.02
2024-01-15T01:07:57.928Z,11.88
2024-01-15T01:10:25.409Z,10.57
2024-01-15T01:12:53.252Z,11.73
2024-01-15T01:15:21.533Z,14.23
2024-01-15T01:17:49.480Z,15.40
2024-01-15T01:20:19.273Z,14.90
2024-01-15T01:22:47.391Z,15.02
2024-01-15T01:25:15.253Z,16.35
2024-01-15T01:27:43.001Z,13.98
2024-01-15T01:30:11.090Z,13.07
2024-01-15T01:32:39.090Z,14.98
2024-01-15T01:35:06.983Z,14.65
2024-01-15T01:37:35.710Z,13.75
2024-01-15T01:40:03.424Z,13.20
2024-01-15T01:42:31.249Z,9.77
2024-01-15T01:44:58.757Z,10.48
2024-01-15T01:47:28.004Z,11.50
2024-01-15T01:49:55.962Z,10.25
2024-01-15T01:52:25.460Z,11.52
2024-01-15T01:54:53.886Z,10.50
2024-01-15T01:57:21.851Z,10.23
2024-01-15T01:59:49.609Z,10.85
2024-01-15T02:02:18.114Z,11.48
2024-01-15T02:04:46.133Z,11.02
2024-01-15T02:07:14.400Z,9.57
2024-01-15T02:09:43.143Z,8.68
2024-01-15T02:12:11.129Z,10.43
2024-01-15T02:14:38.779Z,9.63
2024-01-15T02:17:06.528Z,10.82
2024-01-15T02:19:34.253Z,9.93
2024-01-15T02:22:02.251Z,7.70
2024-01-15T02:24:29.991Z,8.13
2024-01-15T02:26:57.705Z,11.05
2024-01-15T02:29:25.437Z,10.98
2024-01-15T02:31:53.422Z,10.52
2024-01-15T02:34:21.230Z,9.82
2024-01-15T02:36:49.215Z,11.68
2024-01-15T02:39:16.850Z,10.00
2024-01-15T02:41:44.737Z,10.93
2024-01-15T02:44:12.248Z,10.90
2024-01-15T02:46:39.933Z,11.57
2024-01-15T02:49:07.642Z,8.43
2024-01-15T02:51:35.725Z,11.55
2024-01-15T02:54:03.298Z,11.40
2024-01-15T02:56:30.975Z,12.50
2024-01-15T02:58:58.561Z,10.85
2024-01-15T03:01:26.375Z,11.43
2024-01-15T03:03:54.119Z,11.93
2024-01-15T03:06:22.165Z,11.23
2024-01-15T03:08:49.783Z,11.57
2024-01-15T03:11:17.800Z,11.73
2024-01-15T03:13:45.317Z,11.60
2024-01-15T03:16:13.272Z,10.70
2024-01-15T03:18:43.942Z,10.15
2024-01-15T03:21:11.839Z,11.35
2024-01-15T03:23:39.473Z,12.13
2024-01-15T03:26:07.231Z,11.57
2024-01-15T03:28:34.647Z,10.00
2024-01-15T03:31:02.646Z,8.70
2024-01-15T03:33:30.370Z,10.85
2024-01-15T03:35:58.292Z,11.60
2024-01-15T03:38:25.787Z,11.43
2024-01-15T03:40:53.744Z,11.90
2024-01-15T03:43:21.283Z,12.15
2024-01-15T03:45:49.208Z,10.18
2024-01-15T03:48:16.652Z,14.35
2024-01-15T03:50:44.643Z,15.70
2024-01-15T03:53:12.094Z,14.65
2024-01-15T03:55:39.920Z,14.88
2024-01-15T03:58:07.291Z,18.67
2024-01-15T04:00:35.449Z,16.27
2024-01-15T04:03:03.012Z,14.70
2024-01-15T04:05:30.977Z,13.13
2024-01-15T04:07:58.524Z,13.70
2024-01-15T05:18:42.315Z,13.95
2024-01-15T05:21:10.138Z,17.25
2024-01-15T05:23:38.048Z,26.52
2024-01-15T05:26:05.756Z,23.10
2024-01-15T05:28:33.557Z,18.77
2024-01-15T05:31:01.419Z,14.85
2024-01-15T05:33:29.445Z,14.85
2024-01-15T05:35:57.158Z,16.98
2024-01-15T05:38:25.080Z,15.43
2024-01-15T05:40:52.574Z,16.58
2024-01-15T05:43:20.613Z,16.80
2024-01-15T05:45:48.244Z,15.65
2024-01-15T05:48:16.464Z,21.85
2024-01-15T05:50:44.278Z,14.70
2024-01-15T05:53:12.108Z,16.60
2024-01-15T05:55:39.851Z,16.83
2024-01-15T05:58:08.369Z,12.98
2024-01-15T06:00:37.338Z,11.80
2024-01-15T06:03:05.951Z,12.35
2024-01-15T06:05:33.515Z,12.05
2024-01-15T06:08:01.366Z,13.75
2024-01-15T06:10:28.812Z,9.52
2024-01-15T06:12:56.703Z,11.40
2024-01-15T06:15:24.129Z,13.88
2024-01-15T06:17:52.033Z,9.50
2024-01-15T06:20:19.663Z,13.23
2024-01-15T06:22:47.501Z,14.25
2024-01-15T06:25:15.035Z,12.45
2024-01-15T06:27:42.952Z,12.63
2024-01-15T06:30:11.223Z,16.10
2024-01-15T06:32:39.740Z,43.17
2024-01-15T06:35:07.665Z,49.20
2024-01-15T06:37:35.496Z,21.25
2024-01-15T06:40:02.973Z,18.95
2024-01-15T06:42:31.016Z,19.00
2024-01-15T06:44:58.601Z,17.73
2024-01-15T06:47:26.540Z,17.50
2024-01-15T06:49:54.194Z,17.05
2024-01-15T06:52:22.015Z,16.33
2024-01-15T06:54:49.493Z,15.95
2024-01-15T06:57:17.547Z,15.40
2024-01-15T06:59:47.953Z,19.08
2024-01-15T07:02:15.897Z,31.50
2024-01-15T07:04:43.880Z,23.98
2024-01-15T07:07:12.052Z,15.30
2024-01-15T07:09:39.454Z,22.17
2024-01-15T07:12:07.434Z,24.55
2024-01-15T07:14:34.909Z,19.67
2024-01-15T07:17:02.938Z,17.58
2024-01-15T07:19:30.782Z,16.63
2024-01-15T07:21:59.121Z,17.58
2024-01-15T07:24:26.767Z,16.60
2024-01-15T07:26:54.945Z,20.48
2024-01-15T07:29:22.546Z,17.80
2024-01-15T07:31:54.095Z,19.05
2024-01-15T07:34:22.102Z,24.17
2024-01-15T07:36:50.110Z,17.98
2024-01-15T07:39:18.607Z,14.48
2024-01-15T07:41:50.532Z,16.75
2024-01-15T07:44:25.287Z,14.80
2024-01-15T07:46:53.639Z,20.60
2024-01-15T07:49:21.253Z,13.88
2024-01-15T07:51:49.334Z,11.82
2024-01-15T07:54:17.038Z,14.63
2024-01-15T07:57:07.449Z,16.38
2024-01-15T07:59:37.005Z,18.08
2024-01-15T08:02:04.911Z,17.60
2024-01-15T08:04:32.642Z,18.42
2024-01-15T08:07:10.002Z,21.10
2024-01-15T08:10:08.646Z,19.90
2024-01-15T08:12:36.794Z,19.48
2024-01-15T08:15:06.449Z,20.38
2024-01-15T08:17:34.742Z,18.27
2024-01-15T08:20:03.221Z,12.05
2024-01-15T08:22:32.448Z,12.13
2024-01-15T08:25:00.033Z,10.55
2024-01-15T08:27:28.168Z,11.02
2024-01-15T08:29:55.650Z,11.88
2024-01-15T08:32:23.691Z,16.90
2024-01-15T08:34:54.252Z,17.08
2024-01-15T08:37:22.616Z,20.30
2024-01-15T08:39:52.385Z,15.77
2024-01-15T08:42:20.758Z,16.25
2024-01-15T08:44:48.425Z,18.42
2024-01-15T08:47:16.672Z,17.80
2024-01-15T08:49:46.887Z,16.02
2024-01-15T08:52:15.365Z,17.02
2024-01-15T08:54:42.897Z,18.23
2024-01-15T08:57:11.007Z,18.10
2024-01-15T08:59:40.924Z,20.15
2024-01-15T09:02:09.389Z,16.30
2024-01-15T09:04:38.267Z,15.38
2024-01-15T09:07:06.365Z,14.02
2024-01-15T09:09:33.827Z,13.50
2024-01-15T09:12:01.934Z,12.50
2024-01-15T09:14:36.338Z,12.65
2024-01-15T09:17:06.613Z,12.93
2024-01-15T09:19:34.424Z,15.35
2024-01-15T09:22:02.700Z,16.73
2024-01-15T09:24:30.339Z,14.95
2024-01-15T09:26:58.328Z,15.05
2024-01-15T09:29:25.944Z,15.60
2024-01-15T09:31:54.317Z,16.48
2024-01-15T09:34:22.054Z,12.95
2024-01-15T09:36:50.431Z,14.05
2024-01-15T09:39:18.526Z,13.73
2024-01-15T09:41:46.905Z,13.63
2024-01-15T09:44:14.463Z,14.30
2024-01-15T09:46:45.189Z,15.77
2024-01-15T09:49:13.068Z,19.63
2024-01-15T09:51:43.534Z,17.33
2024-01-15T09:54:11.625Z,18.20
2024-01-15T09:56:39.842Z,14.57
2024-01-15T09:59:08.565Z,14.50
2024-01-15T10:01:40.047Z,16.75
2024-01-15T10:04:07.804Z,15.23
2024-01-15T10:06:36.540Z,13.70
2024-01-15T10:09:05.206Z,13.70
2024-01-15T10:11:34.429Z,12.45
2024-01-15T10:14:02.865Z,14.00
2024-01-15T10:16:31.184Z,14.80
2024-01-15T10:18:59.319Z,13.75
2024-01-15T10:21:30.204Z,14.63
2024-01-15T10:23:57.900Z,16.55
2024-01-15T10:26:27.822Z,17.23
2024-01-15T10:28:55.728Z,29.88
2024-01-15T10:31:26.358Z,32.85
2024-01-15T10:33:56.244Z,20.20
2024-01-15T10:36:24.248Z,16.52
2024-01-15T10:38:52.110Z,17.73
2024-01-15T10:41:20.493Z,25.67
2024-01-15T10:43:48.362Z,24.15
2024-01-15T10:46:16.451Z,21.67
2024-01-15T10:48:44.322Z,18.23
2024-01-15T10:51:12.367Z,27.73
2024-01-15T10:53:43.253Z,23.83
2024-01-15T10:56:14.408Z,21.05
2024-01-15T10:58:51.331Z,21.27
2024-01-15T11:01:21.476Z,24.33
2024-01-15T11:03:49.260Z,21.40
2024-01-15T11:06:24.135Z,23.08
2024-01-15T11:08:53.676Z,23.80
2024-01-15T11:11:23.580Z,24.48
2024-01-15T11:13:53.998Z,33.58
2024-01-15T11:16:22.016Z,49.97
2024-01-15T11:18:58.604Z,38.60
2024-01-15T11:21:29.086Z,26.00
2024-01-15T11:24:01.345Z,22.73
2024-01-15T11:26:35.858Z,23.35
2024-01-15T11:29:38.743Z,22.83
2024-01-15T11:32:08.677Z,24.23
2024-01-15T11:35:00.909Z,26.70
2024-01-15T11:37:50.823Z,26.27
2024-01-15T11:40:37.436Z,27.13
2024-01-15T11:43:07.321Z,25.55
2024-01-15T11:45:37.815Z,26.35
2024-01-15T11:48:19.654Z,25.13
2024-01-15T11:50:51.321Z,23.92
2024-01-15T11:53:37.572Z,23.02
2024-01-15T11:56:13.503Z,22.63
2024-01-15T11:58:41.876Z,21.17
2024-01-15T12:01:09.755Z,24.45
2024-01-15T12:03:37.998Z,22.75
2024-01-15T12:06:10.442Z,19.25
2024-01-15T12:08:38.312Z,18.02
2024-01-15T12:11:15.348Z,19.50
2024-01-15T12:13:57.951Z,22.52
2024-01-15T12:16:42.196Z,24.27
2024-01-15T12:19:10.355Z,25.08
2024-01-15T12:21:40.918Z,21.70
2024-01-15T12:24:09.349Z,19.55
2024-01-15T12:26:36.954Z,21.90
2024-01-15T12:29:08.842Z,19.23
2024-01-15T12:31:36.684Z,22.08
2024-01-15T12:34:04.984Z,37.00
2024-01-15T12:36:33.029Z,36.30
2024-01-15T12:39:01.762Z,30.85
2024-01-15T12:41:32.838Z,55.75
2024-01-15T12:44:16.822Z,45.40
2024-01-15T12:47:06.113Z,44.70
2024-01-15T12:52:51.335Z,31.77
2024-01-15T12:55:38.176Z,34.65
2024-01-15T12:58:30.324Z,38.28
2024-01-15T13:01:04.921Z,33.72
2024-01-15T13:03:46.214Z,33.63
2024-01-15T13:06:19.447Z,37.58
2024-01-15T13:08:50.453Z,40.53
2024-01-15T13:11:35.245Z,46.92
2024-01-15T13:14:05.556Z,65.93
2024-01-15T13:16:33.479Z,67.35
2024-01-15T13:19:01.293Z,52.40
2024-01-15T13:21:29.300Z,41.00
2024-01-15T13:23:57.105Z,43.97
2024-01-15T13:26:25.736Z,40.00
2024-01-15T13:28:53.197Z,41.55
2024-01-15T13:31:22.191Z,41.10
2024-01-15T13:33:49.947Z,35.70
2024-01-15T13:36:21.401Z,26.20
2024-01-15T13:38:50.077Z,24.45
2024-01-15T13:41:20.272Z,25.30
2024-01-15T13:43:51.221Z,28.88
2024-01-15T13:46:19.044Z,25.55
2024-01-15T13:48:47.788Z,26.10
2024-01-15T13:51:15.901Z,27.23
2024-01-15T13:53:43.465Z,29.30
2024-01-15T13:56:12.236Z,25.55
2024-01-15T13:58:39.702Z,24.42
2024-01-15T14:01:07.830Z,25.42
2024-01-15T14:03:35.555Z,25.47
2024-01-15T14:06:10.292Z,26.42
2024-01-15T14:08:38.561Z,27.70
2024-01-15T14:11:07.816Z,27.75
2024-01-15T14:13:35.398Z,28.08
2024-01-15T14:16:03.209Z,26.50
2024-01-15T14:18:34.839Z,26.58
2024-01-15T14:21:03.827Z,24.35
2024-01-15T14:23:31.336Z,25.35
2024-01-15T14:25:59.303Z,29.27
2024-01-15T14:28:26.878Z,29.10
2024-01-15T14:30:55.647Z,24.98
2024-01-15T14:33:24.718Z,25.20
2024-01-15T14:35:53.093Z,31.30
2024-01-15T14:38:20.604Z,29.17
2024-01-15T14:40:48.614Z,26.38
2024-01-15T14:43:16.477Z,17.92
2024-01-15T14:45:46.933Z,18.65
2024-01-15T14:48:15.365Z,15.52
2024-01-15T14:50:43.380Z,7.85
2024-01-15T14:53:10.932Z,8.50
2024-01-15T14:55:38.890Z,5.47
2024-01-15T14:58:07.238Z,5.20
2024-01-15T15:00:35.449Z,6.40
2024-01-15T15:03:03.912Z,5.78
2024-01-15T15:05:32.084Z,4.90
2024-01-15T15:07:59.553Z,10.50
2024-01-15T15:10:28.333Z,12.77
2024-01-15T15:12:55.949Z,27.98
2024-01-15T15:15:25.184Z,12.35
2024-01-15T15:17:54.223Z,13.93
2024-01-15T15:20:23.665Z,15.25
2024-01-15T15:22:56.482Z,13.77
2024-01-15T15:25:24.636Z,14.05
2024-01-15T15:27:52.268Z,14.90
2024-01-15T15:30:20.366Z,15.37
2024-01-15T15:32:48.273Z,16.35
2024-01-15T15:35:17.749Z,14.25
2024-01-15T15:37:45.598Z,13.20
2024-01-15T15:40:14.497Z,14.20
2024-01-15T15:42:42.236Z,15.63
2024-01-15T15:45:11.207Z,14.82
2024-01-15T15:47:39.027Z,14.38
2024-01-15T15:50:11.554Z,13.90
2024-01-15T15:52:39.554Z,12.55
2024-01-15T15:55:09.487Z,13.60
2024-01-15T15:57:51.560Z,14.40
2024-01-15T16:00:21.893Z,13.20
2024-01-15T16:02:49.467Z,11.40
2024-01-15T16:05:17.264Z,16.13
2024-01-15T16:07:44.749Z,15.80
2024-01-15T16:10:12.865Z,14.32
2024-01-15T16:12:42.214Z,13.70
2024-01-15T16:15:21.950Z,14.50
2024-01-15T16:23:17.830Z,13.98
2024-01-15T16:23:32.429Z,20.92
2024-01-15T16:24:08.199Z,23.60
2024-01-15T16:26:31.157Z,13.25
2024-01-15T16:29:00.885Z,13.18
2024-01-15T16:31:30.220Z,21.88
2024-01-15T16:34:02.236Z,29.58
2024-01-15T16:36:33.736Z,31.95
2024-01-15T16:39:02.494Z,24.85
2024-01-15T16:41:31.114Z,25.50
2024-01-15T16:43:59.651Z,24.70
2024-01-15T16:46:27.870Z,33.27
2024-01-15T16:48:55.892Z,30.42
2024-01-15T16:51:23.867Z,24.52
2024-01-15T16:53:51.489Z,27.70
2024-01-15T16:56:19.499Z,30.20
2024-01-15T16:58:47.414Z,25.38
2024-01-15T17:01:15.315Z,32.03
2024-01-15T17:03:42.763Z,19.20
2024-01-15T17:06:14.878Z,17.65
2024-01-15T17:08:43.257Z,19.40
2024-01-15T17:11:11.310Z,16.92
2024-01-15T17:13:39.911Z,19.98
2024-01-15T17:16:12.590Z,19.58
2024-01-15T17:18:40.138Z,22.40
2024-01-15T17:21:07.989Z,25.80
2024-01-15T17:23:35.515Z,36.88
2024-01-15T17:26:03.953Z,30.30
2024-01-15T17:28:31.431Z,28.38
2024-01-15T17:31:00.313Z,32.45
2024-01-15T17:33:27.965Z,36.45
2024-01-15T17:36:00.634Z,36.58
2024-01-15T17:38:30.066Z,27.90
2024-01-15T17:40:59.405Z,25.45
2024-01-15T17:43:27.666Z,27.27
2024-01-15T17:45:56.719Z,28.75
2024-01-15T17:48:24.797Z,27.13
2024-01-15T17:50:53.365Z,28.42
2024-01-15T17:53:21.112Z,30.88
2024-01-15T17:55:49.931Z,27.55
2024-01-15T17:58:17.586Z,32.97
2024-01-15T18:00:45.384Z,32.53
2024-01-15T18:03:12.914Z,28.90
2024-01-15T18:05:40.724Z,23.27
2024-01-15T18:08:08.327Z,16.45
2024-01-15T18:10:45.433Z,14.40
2024-01-15T18:13:13.160Z,17.00
2024-01-15T18:15:41.650Z,16.55
2024-01-15T18:18:09.424Z,16.73
2024-01-15T18:20:37.820Z,15.60
2024-01-15T18:23:05.718Z,14.18
2024-01-15T18:25:33.605Z,14.95
2024-01-15T18:28:01.614Z,18.80
2024-01-15T18:30:29.332Z,19.70
2024-01-15T18:32:57.068Z,20.52
2024-01-15T18:35:27.218Z,20.27
2024-01-15T18:37:54.845Z,21.73
2024-01-15T18:40:23.711Z,22.13
2024-01-15T18:42:51.474Z,21.52
2024-01-15T18:45:19.139Z,21.13
2024-01-15T18:47:47.965Z,21.92
2024-01-15T18:50:15.921Z,21.50
2024-01-15T18:52:43.418Z,21.38
2024-01-15T18:55:14.739Z,26.75
2024-01-15T18:57:42.638Z,22.42
2024-01-15T19:00:12.366Z,24.63
2024-01-15T19:02:40.018Z,28.67
2024-01-15T19:05:08.178Z,26.92
2024-01-15T19:07:35.863Z,35.55
2024-01-15T19:10:03.840Z,23.33
2024-01-15T19:12:31.341Z,20.23
2024-01-15T19:14:59.059Z,18.70
2024-01-15T19:17:26.844Z,15.98
2024-01-15T19:19:55.772Z,18.30
2024-01-15T19:22:23.704Z,18.33
2024-01-15T19:24:51.977Z,17.80
2024-01-15T19:27:20.023Z,16.00
2024-01-15T19:29:47.850Z,25.65
2024-01-15T19:32:15.326Z,24.67
2024-01-15T19:34:43.145Z,29.05
2024-01-15T19:37:10.672Z,22.20
2024-01-15T19:39:38.439Z,23.52
2024-01-15T19:42:06.189Z,20.15
2024-01-15T19:44:34.064Z,21.38
2024-01-15T19:47:04.843Z,19.90
2024-01-15T19:49:33.091Z,22.58
2024-01-15T19:52:00.490Z,21.85
2024-01-15T19:54:28.353Z,21.23
2024-01-15T19:56:55.766Z,18.73
2024-01-15T19:59:23.697Z,18.92
2024-01-15T20:01:51.091Z,20.33
2024-01-15T20:04:18.982Z,17.73
2024-01-15T20:06:46.543Z,14.75
2024-01-15T20:09:14.433Z,13.18
2024-01-15T20:11:43.408Z,13.95
2024-01-15T20:14:11.456Z,15.93
2024-01-15T20:16:39.784Z,13.95
2024-01-15T20:19:07.990Z,14.13
2024-01-15T20:21:37.567Z,12.25
2024-01-15T20:24:06.107Z,15.25
2024-01-15T20:26:33.647Z,16.42
2024-01-15T20:29:02.108Z,14.77
2024-01-15T20:31:30.437Z,13.75
2024-01-15T20:33:58.307Z,14.32
2024-01-15T20:36:25.956Z,11.68
2024-01-15T20:38:53.730Z,10.40
2024-01-15T20:41:21.190Z,9.77
2024-01-15T20:43:49.153Z,9.27
2024-01-15T20:46:16.517Z,10.27
2024-01-15T20:48:45.009Z,9.90
2024-01-15T20:51:12.404Z,8.27
2024-01-15T20:53:42.793Z,9.57
2024-01-15T20:56:11.225Z,12.32
2024-01-15T20:58:39.128Z,9.55
2024-01-15T21:01:07.060Z,12.18
2024-01-15T21:03:36.089Z,11.70
2024-01-15T21:06:03.889Z,13.20
2024-01-15T21:08:32.477Z,11.52
2024-01-15T21:11:03.942Z,9.68
2024-01-15T21:13:32.087Z,10.20
2024-01-15T21:15:59.371Z,11.20
2024-01-15T21:18:28.304Z,11.68
2024-01-15T21:20:56.564Z,12.40
2024-01-15T21:23:24.564Z,13.27
2024-01-15T21:25:52.257Z,12.70
2024-01-15T21:28:20.382Z,14.85
2024-01-15T21:30:48.330Z,13.05
2024-01-15T21:33:16.222Z,13.00
2024-01-15T21:35:43.857Z,11.93
2024-01-15T21:38:11.837Z,15.98
2024-01-15T21:40:39.381Z,43.65
2024-01-15T21:43:07.175Z,17.00
2024-01-15T22:29:40.231Z,3.63
2024-01-15T22:32:07.954Z,3.47
2024-01-15T22:34:35.625Z,3.78
2024-01-15T22:37:03.944Z,5.80
2024-01-15T22:39:31.463Z,5.35
2024-01-15T22:42:00.516Z,2.58
2024-01-15T22:44:28.242Z,5.68
2024-01-15T22:46:56.066Z,7.05
2024-01-15T22:49:23.584Z,4.32
2024-01-15T22:51:51.280Z,4.03
2024-01-15T22:54:18.748Z,4.30
2024-01-15T22:56:46.456Z,17.55
2024-01-15T22:59:17.229Z,4.93
2024-01-15T23:01:48.346Z,5.00
2024-01-15T23:04:16.109Z,3.75
2024-01-15T23:06:43.848Z,3.63
2024-01-15T23:09:11.727Z,3.90
2024-01-15T23:11:39.464Z,3.80
2024-01-15T23:14:06.981Z,5.00
2024-01-15T23:16:34.702Z,3.60
2024-01-15T23:19:02.192Z,3.85
2024-01-15T23:21:29.815Z,4.20
2024-01-15T23:23:57.357Z,10.85
2024-01-15T23:26:25.559Z,4.53
2024-01-15T23:28:53.047Z,4.57
2024-01-15T23:31:20.659Z,3.85
2024-01-15T23:33:48.248Z,2.20
2024-01-15T23:36:16.075Z,2.50
2024-01-15T23:38:43.599Z,2.33
2024-01-15T23:41:20.012Z,2.42
2024-01-15T23:43:49.068Z,2.33
2024-01-15T23:46:17.680Z,2.33
2024-01-15T23:48:45.515Z,2.80
2024-01-15T23:51:13.431Z,2.42
2024-01-15T23:53:41.125Z,2.42
2024-01-15T23:56:08.909Z,4.18
2024-01-15T23:58:36.305Z,5.63
